sensor_id;sensor_type;location;lat;lon;timestamp;temperature;humidity
4615;DHT22;2320;51.362;6.946;2022-07-18T00:00:06;15.10;99.90
4615;DHT22;2320;51.362;6.946;2022-07-18T00:02:32;15.00;99.90
4615;DHT22;2320;51.362;6.946;2022-07-18T00:04:58;15.20;99.90
4615;DHT22;2320;51.362;6.946;2022-07-18T00:07:23;15.20;99.90
4615;DHT22;2320;51.362;6.946;2022-07-18T00:09:49;15.10;99.90
4615;DHT22;2320;51.362;6.946;2022-07-18T00:12:14;15.20;99.90
4615;DHT22;2320;51.362;6.946;2022-07-18T00:14:40;14.90;99.90
4615;DHT22;2320;51.362;6.946;2022-07-18T00:17:06;14.80;99.90
4615;DHT22;2320;51.362;6.946;2022-07-18T00:19:32;14.80;99.90
4615;DHT22;2320;51.362;6.946;2022-07-18T00:21:57;15.20;99.90
4615;DHT22;2320;51.362;6.946;2022-07-18T00:24:22;15.20;99.90
4615;DHT22;2320;51.362;6.946;2022-07-18T00:26:48;15.20;99.90
4615;DHT22;2320;51.362;6.946;2022-07-18T00:29:14;15.20;99.90
4615;DHT22;2320;51.362;6.946;2022-07-18T00:31:39;14.70;99.90
4615;DHT22;2320;51.362;6.946;2022-07-18T00:34:05;14.80;99.90
4615;DHT22;2320;51.362;6.946;2022-07-18T00:36:30;14.80;99.90
4615;DHT22;2320;51.362;6.946;2022-07-18T00:38:56;14.70;99.90
4615;DHT22;2320;51.362;6.946;2022-07-18T00:41:22;14.50;99.90
4615;DHT22;2320;51.362;6.946;2022-07-18T00:43:48;14.40;99.90
4615;DHT22;2320;51.362;6.946;2022-07-18T00:46:13;14.50;99.90
4615;DHT22;2320;51.362;6.946;2022-07-18T00:48:39;14.40;99.90
4615;DHT22;2320;51.362;6.946;2022-07-18T00:51:05;14.30;99.90
4615;DHT22;2320;51.362;6.946;2022-07-18T00:53:31;14.10;99.90
4615;DHT22;2320;51.362;6.946;2022-07-18T00:55:56;14.10;99.90
4615;DHT22;2320;51.362;6.946;2022-07-18T00:58:22;14.20;99.90
4615;DHT22;2320;51.362;6.946;2022-07-18T01:00:47;14.30;99.90
4615;DHT22;2320;51.362;6.946;2022-07-18T01:03:42;14.30;99.90
4615;DHT22;2320;51.362;6.946;2022-07-18T01:06:07;14.20;99.90
4615;DHT22;2320;51.362;6.946;2022-07-18T01:08:33;14.10;99.90
4615;DHT22;2320;51.362;6.946;2022-07-18T01:11:00;14.10;99.90
4615;DHT22;2320;51.362;6.946;2022-07-18T01:13:25;14.10;99.90
4615;DHT22;2320;51.362;6.946;2022-07-18T01:15:51;13.90;99.90
4615;DHT22;2320;51.362;6.946;2022-07-18T01:18:16;14.10;99.90
4615;DHT22;2320;51.362;6.946;2022-07-18T01:20:42;14.20;99.90
4615;DHT22;2320;51.362;6.946;2022-07-18T01:23:07;14.00;99.90
4615;DHT22;2320;51.362;6.946;2022-07-18T01:25:33;13.90;99.90
4615;DHT22;2320;51.362;6.946;2022-07-18T01:27:59;13.90;99.90
4615;DHT22;2320;51.362;6.946;2022-07-18T01:30:24;13.90;99.90
4615;DHT22;2320;51.362;6.946;2022-07-18T01:32:59;13.90;99.90
4615;DHT22;2320;51.362;6.946;2022-07-18T01:35:26;13.90;99.90
4615;DHT22;2320;51.362;6.946;2022-07-18T01:37:52;13.90;99.90
4615;DHT22;2320;51.362;6.946;2022-07-18T01:40:18;14.20;99.90
4615;DHT22;2320;51.362;6.946;2022-07-18T01:42:43;14.20;99.90
4615;DHT22;2320;51.362;6.946;2022-07-18T01:45:09;13.80;99.90
4615;DHT22;2320;51.362;6.946;2022-07-18T01:47:35;13.80;99.90
4615;DHT22;2320;51.362;6.946;2022-07-18T01:50:00;13.90;99.90
4615;DHT22;2320;51.362;6.946;2022-07-18T01:52:26;14.20;99.90
4615;DHT22;2320;51.362;6.946;2022-07-18T01:54:51;14.10;99.90
4615;DHT22;2320;51.362;6.946;2022-07-18T01:57:16;13.90;99.90
4615;DHT22;2320;51.362;6.946;2022-07-18T01:59:42;13.80;99.90
4615;DHT22;2320;51.362;6.946;2022-07-18T02:02:07;13.80;99.90
4615;DHT22;2320;51.362;6.946;2022-07-18T02:04:33;13.90;99.90
4615;DHT22;2320;51.362;6.946;2022-07-18T02:07:17;13.80;99.90
4615;DHT22;2320;51.362;6.946;2022-07-18T02:09:43;13.60;99.90
4615;DHT22;2320;51.362;6.946;2022-07-18T02:12:08;13.70;99.90
4615;DHT22;2320;51.362;6.946;2022-07-18T02:14:33;13.70;99.90
4615;DHT22;2320;51.362;6.946;2022-07-18T02:16:59;13.70;99.90
4615;DHT22;2320;51.362;6.946;2022-07-18T02:19:24;13.70;99.90
4615;DHT22;2320;51.362;6.946;2022-07-18T02:21:50;13.60;99.90
4615;DHT22;2320;51.362;6.946;2022-07-18T02:24:15;13.50;99.90
4615;DHT22;2320;51.362;6.946;2022-07-18T02:26:41;13.40;99.90
4615;DHT22;2320;51.362;6.946;2022-07-18T02:29:06;13.30;99.90
4615;DHT22;2320;51.362;6.946;2022-07-18T02:31:32;13.20;99.90
4615;DHT22;2320;51.362;6.946;2022-07-18T02:33:57;13.30;99.90
4615;DHT22;2320;51.362;6.946;2022-07-18T02:36:23;13.30;99.90
4615;DHT22;2320;51.362;6.946;2022-07-18T02:38:48;13.40;99.90
4615;DHT22;2320;51.362;6.946;2022-07-18T02:41:14;13.40;99.90
4615;DHT22;2320;51.362;6.946;2022-07-18T02:43:40;13.40;99.90
4615;DHT22;2320;51.362;6.946;2022-07-18T02:46:05;13.50;99.90
4615;DHT22;2320;51.362;6.946;2022-07-18T02:48:31;13.60;99.90
4615;DHT22;2320;51.362;6.946;2022-07-18T02:50:56;13.60;99.90
4615;DHT22;2320;51.362;6.946;2022-07-18T02:53:22;13.60;99.90
4615;DHT22;2320;51.362;6.946;2022-07-18T02:55:49;13.50;99.90
4615;DHT22;2320;51.362;6.946;2022-07-18T02:58:15;13.40;99.90
4615;DHT22;2320;51.362;6.946;2022-07-18T03:00:40;13.40;99.90
4615;DHT22;2320;51.362;6.946;2022-07-18T03:03:06;13.40;99.90
4615;DHT22;2320;51.362;6.946;2022-07-18T03:05:31;13.50;99.90
4615;DHT22;2320;51.362;6.946;2022-07-18T03:07:57;13.40;99.90
4615;DHT22;2320;51.362;6.946;2022-07-18T03:10:22;13.40;99.90
4615;DHT22;2320;51.362;6.946;2022-07-18T03:12:48;13.40;99.90
4615;DHT22;2320;51.362;6.946;2022-07-18T03:15:13;13.40;99.90
4615;DHT22;2320;51.362;6.946;2022-07-18T03:17:39;13.40;99.90
4615;DHT22;2320;51.362;6.946;2022-07-18T03:20:05;13.40;99.90
4615;DHT22;2320;51.362;6.946;2022-07-18T03:22:30;13.30;99.90
4615;DHT22;2320;51.362;6.946;2022-07-18T03:24:58;13.30;99.90
4615;DHT22;2320;51.362;6.946;2022-07-18T03:27:24;13.40;99.90
4615;DHT22;2320;51.362;6.946;2022-07-18T03:29:49;13.20;99.90
4615;DHT22;2320;51.362;6.946;2022-07-18T03:32:14;13.40;99.90
4615;DHT22;2320;51.362;6.946;2022-07-18T03:34:40;13.20;99.90
4615;DHT22;2320;51.362;6.946;2022-07-18T03:37:05;13.10;99.90
4615;DHT22;2320;51.362;6.946;2022-07-18T03:39:31;13.00;99.90
4615;DHT22;2320;51.362;6.946;2022-07-18T03:41:56;12.90;99.90
4615;DHT22;2320;51.362;6.946;2022-07-18T03:44:22;12.80;99.90
4615;DHT22;2320;51.362;6.946;2022-07-18T03:46:47;12.90;99.90
4615;DHT22;2320;51.362;6.946;2022-07-18T03:49:14;12.90;99.90
4615;DHT22;2320;51.362;6.946;2022-07-18T03:51:39;12.90;99.90
4615;DHT22;2320;51.362;6.946;2022-07-18T03:54:05;12.80;99.90
4615;DHT22;2320;51.362;6.946;2022-07-18T03:56:30;12.80;99.90
4615;DHT22;2320;51.362;6.946;2022-07-18T03:58:56;12.90;99.90
4615;DHT22;2320;51.362;6.946;2022-07-18T04:01:21;13.00;99.90
4615;DHT22;2320;51.362;6.946;2022-07-18T04:03:47;13.00;99.90
4615;DHT22;2320;51.362;6.946;2022-07-18T04:06:12;12.90;99.90
4615;DHT22;2320;51.362;6.946;2022-07-18T04:08:38;12.80;99.90
4615;DHT22;2320;51.362;6.946;2022-07-18T04:11:03;12.80;99.90
4615;DHT22;2320;51.362;6.946;2022-07-18T04:13:28;12.70;99.90
4615;DHT22;2320;51.362;6.946;2022-07-18T04:15:54;12.80;99.90
4615;DHT22;2320;51.362;6.946;2022-07-18T04:18:19;12.80;99.90
4615;DHT22;2320;51.362;6.946;2022-07-18T04:20:45;12.90;99.90
4615;DHT22;2320;51.362;6.946;2022-07-18T04:23:10;13.00;99.90
4615;DHT22;2320;51.362;6.946;2022-07-18T04:25:37;13.10;99.90
4615;DHT22;2320;51.362;6.946;2022-07-18T04:28:03;13.20;99.90
4615;DHT22;2320;51.362;6.946;2022-07-18T04:30:28;13.40;99.90
4615;DHT22;2320;51.362;6.946;2022-07-18T04:32:54;13.40;99.90
4615;DHT22;2320;51.362;6.946;2022-07-18T04:35:20;13.60;99.90
4615;DHT22;2320;51.362;6.946;2022-07-18T04:37:46;13.60;99.90
4615;DHT22;2320;51.362;6.946;2022-07-18T04:40:12;13.70;99.90
4615;DHT22;2320;51.362;6.946;2022-07-18T04:42:37;13.90;99.90
4615;DHT22;2320;51.362;6.946;2022-07-18T04:45:03;14.00;99.90
4615;DHT22;2320;51.362;6.946;2022-07-18T04:47:30;14.10;99.90
4615;DHT22;2320;51.362;6.946;2022-07-18T04:49:55;14.30;99.90
4615;DHT22;2320;51.362;6.946;2022-07-18T04:52:21;14.30;99.90
4615;DHT22;2320;51.362;6.946;2022-07-18T04:54:46;14.40;99.90
4615;DHT22;2320;51.362;6.946;2022-07-18T04:57:12;14.40;99.90
4615;DHT22;2320;51.362;6.946;2022-07-18T04:59:40;14.50;99.90
4615;DHT22;2320;51.362;6.946;2022-07-18T05:02:06;14.50;99.90
4615;DHT22;2320;51.362;6.946;2022-07-18T05:04:32;14.70;99.90
4615;DHT22;2320;51.362;6.946;2022-07-18T05:06:57;14.80;99.90
4615;DHT22;2320;51.362;6.946;2022-07-18T05:09:23;15.20;99.90
4615;DHT22;2320;51.362;6.946;2022-07-18T05:11:48;16.00;99.90
4615;DHT22;2320;51.362;6.946;2022-07-18T05:14:13;17.40;99.90
4615;DHT22;2320;51.362;6.946;2022-07-18T05:16:39;18.60;99.90
4615;DHT22;2320;51.362;6.946;2022-07-18T05:19:05;20.10;99.90
4615;DHT22;2320;51.362;6.946;2022-07-18T05:21:30;20.70;99.90
4615;DHT22;2320;51.362;6.946;2022-07-18T05:23:56;21.10;99.90
4615;DHT22;2320;51.362;6.946;2022-07-18T05:26:21;21.60;99.90
4615;DHT22;2320;51.362;6.946;2022-07-18T05:28:47;22.00;99.90
4615;DHT22;2320;51.362;6.946;2022-07-18T05:31:12;22.70;99.90
4615;DHT22;2320;51.362;6.946;2022-07-18T05:33:38;23.90;99.90
4615;DHT22;2320;51.362;6.946;2022-07-18T05:36:04;24.80;99.90
4615;DHT22;2320;51.362;6.946;2022-07-18T05:38:29;25.60;99.90
4615;DHT22;2320;51.362;6.946;2022-07-18T05:40:55;25.60;99.90
4615;DHT22;2320;51.362;6.946;2022-07-18T05:43:20;25.80;99.90
4615;DHT22;2320;51.362;6.946;2022-07-18T05:45:46;26.10;99.90
4615;DHT22;2320;51.362;6.946;2022-07-18T05:48:11;25.80;99.90
4615;DHT22;2320;51.362;6.946;2022-07-18T05:50:36;27.10;99.90
4615;DHT22;2320;51.362;6.946;2022-07-18T05:53:02;27.10;99.90
4615;DHT22;2320;51.362;6.946;2022-07-18T05:55:27;27.90;99.90
4615;DHT22;2320;51.362;6.946;2022-07-18T05:57:53;28.60;99.90
4615;DHT22;2320;51.362;6.946;2022-07-18T06:00:19;28.10;93.60
4615;DHT22;2320;51.362;6.946;2022-07-18T06:02:46;28.70;92.70
4615;DHT22;2320;51.362;6.946;2022-07-18T06:05:12;29.30;86.20
4615;DHT22;2320;51.362;6.946;2022-07-18T06:07:37;29.90;78.30
4615;DHT22;2320;51.362;6.946;2022-07-18T06:10:03;30.30;78.20
4615;DHT22;2320;51.362;6.946;2022-07-18T06:12:29;30.70;72.00
4615;DHT22;2320;51.362;6.946;2022-07-18T06:14:56;30.20;70.60
4615;DHT22;2320;51.362;6.946;2022-07-18T06:17:21;29.90;68.00
4615;DHT22;2320;51.362;6.946;2022-07-18T06:19:47;30.40;66.10
4615;DHT22;2320;51.362;6.946;2022-07-18T06:22:12;30.50;63.40
4615;DHT22;2320;51.362;6.946;2022-07-18T06:24:38;30.20;60.80
4615;DHT22;2320;51.362;6.946;2022-07-18T06:27:03;30.20;61.60
4615;DHT22;2320;51.362;6.946;2022-07-18T06:29:29;30.70;60.90
4615;DHT22;2320;51.362;6.946;2022-07-18T06:31:54;31.00;59.30
4615;DHT22;2320;51.362;6.946;2022-07-18T06:34:20;31.40;58.30
4615;DHT22;2320;51.362;6.946;2022-07-18T06:36:45;31.90;57.70
4615;DHT22;2320;51.362;6.946;2022-07-18T06:39:11;32.80;55.50
4615;DHT22;2320;51.362;6.946;2022-07-18T06:41:37;33.60;54.80
4615;DHT22;2320;51.362;6.946;2022-07-18T06:44:04;33.50;53.60
4615;DHT22;2320;51.362;6.946;2022-07-18T06:46:29;33.50;53.20
4615;DHT22;2320;51.362;6.946;2022-07-18T06:48:55;34.00;53.90
4615;DHT22;2320;51.362;6.946;2022-07-18T06:51:20;34.40;51.30
4615;DHT22;2320;51.362;6.946;2022-07-18T06:53:46;34.10;51.00
4615;DHT22;2320;51.362;6.946;2022-07-18T06:56:11;34.70;51.80
4615;DHT22;2320;51.362;6.946;2022-07-18T06:58:37;35.40;50.30
4615;DHT22;2320;51.362;6.946;2022-07-18T07:01:02;36.40;50.20
4615;DHT22;2320;51.362;6.946;2022-07-18T07:03:28;36.70;48.70
4615;DHT22;2320;51.362;6.946;2022-07-18T07:05:53;37.10;48.20
4615;DHT22;2320;51.362;6.946;2022-07-18T07:08:19;36.90;46.70
4615;DHT22;2320;51.362;6.946;2022-07-18T07:10:44;37.00;48.00
4615;DHT22;2320;51.362;6.946;2022-07-18T07:13:10;36.70;46.20
4615;DHT22;2320;51.362;6.946;2022-07-18T07:15:35;36.20;46.10
4615;DHT22;2320;51.362;6.946;2022-07-18T07:18:01;35.40;46.70
4615;DHT22;2320;51.362;6.946;2022-07-18T07:20:26;34.80;46.50
4615;DHT22;2320;51.362;6.946;2022-07-18T07:22:56;34.70;46.80
4615;DHT22;2320;51.362;6.946;2022-07-18T07:25:22;34.90;47.00
4615;DHT22;2320;51.362;6.946;2022-07-18T07:27:48;35.30;47.10
4615;DHT22;2320;51.362;6.946;2022-07-18T07:30:14;36.20;47.30
4615;DHT22;2320;51.362;6.946;2022-07-18T07:32:41;37.30;48.00
4615;DHT22;2320;51.362;6.946;2022-07-18T07:35:08;38.20;45.50
4615;DHT22;2320;51.362;6.946;2022-07-18T07:37:37;39.10;44.80
4615;DHT22;2320;51.362;6.946;2022-07-18T07:40:02;39.80;45.00
4615;DHT22;2320;51.362;6.946;2022-07-18T07:42:28;39.20;42.20
4615;DHT22;2320;51.362;6.946;2022-07-18T07:44:53;39.30;44.60
4615;DHT22;2320;51.362;6.946;2022-07-18T07:47:19;40.00;42.80
4615;DHT22;2320;51.362;6.946;2022-07-18T07:49:44;40.40;41.50
4615;DHT22;2320;51.362;6.946;2022-07-18T07:52:10;40.30;40.80
4615;DHT22;2320;51.362;6.946;2022-07-18T07:54:40;39.90;40.90
4615;DHT22;2320;51.362;6.946;2022-07-18T07:57:05;40.30;40.70
4615;DHT22;2320;51.362;6.946;2022-07-18T07:59:31;40.30;40.40
4615;DHT22;2320;51.362;6.946;2022-07-18T08:01:57;40.80;40.70
4615;DHT22;2320;51.362;6.946;2022-07-18T08:04:23;41.40;41.10
4615;DHT22;2320;51.362;6.946;2022-07-18T08:06:48;40.80;38.40
4615;DHT22;2320;51.362;6.946;2022-07-18T08:09:14;40.20;38.20
4615;DHT22;2320;51.362;6.946;2022-07-18T08:11:40;39.60;39.10
4615;DHT22;2320;51.362;6.946;2022-07-18T08:14:06;39.40;38.40
4615;DHT22;2320;51.362;6.946;2022-07-18T08:16:31;39.00;39.10
4615;DHT22;2320;51.362;6.946;2022-07-18T08:18:57;39.10;38.50
4615;DHT22;2320;51.362;6.946;2022-07-18T08:21:22;39.50;40.80
4615;DHT22;2320;51.362;6.946;2022-07-18T08:23:48;40.10;39.50
4615;DHT22;2320;51.362;6.946;2022-07-18T08:26:14;40.50;39.20
4615;DHT22;2320;51.362;6.946;2022-07-18T08:28:39;40.00;37.70
4615;DHT22;2320;51.362;6.946;2022-07-18T08:31:05;41.00;39.20
4615;DHT22;2320;51.362;6.946;2022-07-18T08:33:30;41.90;38.40
4615;DHT22;2320;51.362;6.946;2022-07-18T08:35:56;42.00;37.40
4615;DHT22;2320;51.362;6.946;2022-07-18T08:38:21;43.50;38.80
4615;DHT22;2320;51.362;6.946;2022-07-18T08:40:47;44.10;37.40
4615;DHT22;2320;51.362;6.946;2022-07-18T08:43:13;44.50;37.40
4615;DHT22;2320;51.362;6.946;2022-07-18T08:45:40;44.70;36.40
4615;DHT22;2320;51.362;6.946;2022-07-18T08:48:07;44.80;34.70
4615;DHT22;2320;51.362;6.946;2022-07-18T08:50:32;44.10;35.40
4615;DHT22;2320;51.362;6.946;2022-07-18T08:52:58;44.00;36.30
4615;DHT22;2320;51.362;6.946;2022-07-18T08:55:24;43.80;36.60
4615;DHT22;2320;51.362;6.946;2022-07-18T08:57:52;44.10;35.70
4615;DHT22;2320;51.362;6.946;2022-07-18T09:00:20;43.50;34.80
4615;DHT22;2320;51.362;6.946;2022-07-18T09:02:58;43.70;34.70
4615;DHT22;2320;51.362;6.946;2022-07-18T09:05:24;42.40;34.70
4615;DHT22;2320;51.362;6.946;2022-07-18T09:07:49;42.00;35.70
4615;DHT22;2320;51.362;6.946;2022-07-18T09:10:15;42.90;37.20
4615;DHT22;2320;51.362;6.946;2022-07-18T09:12:55;44.00;36.30
4615;DHT22;2320;51.362;6.946;2022-07-18T09:15:20;44.80;35.30
4615;DHT22;2320;51.362;6.946;2022-07-18T09:17:49;45.00;35.20
4615;DHT22;2320;51.362;6.946;2022-07-18T09:20:15;44.00;34.30
4615;DHT22;2320;51.362;6.946;2022-07-18T09:22:45;44.50;35.60
4615;DHT22;2320;51.362;6.946;2022-07-18T09:25:16;45.10;35.00
4615;DHT22;2320;51.362;6.946;2022-07-18T09:27:48;45.10;34.30
4615;DHT22;2320;51.362;6.946;2022-07-18T09:30:19;45.70;34.30
4615;DHT22;2320;51.362;6.946;2022-07-18T09:32:47;46.10;35.00
4615;DHT22;2320;51.362;6.946;2022-07-18T09:35:14;45.40;33.40
4615;DHT22;2320;51.362;6.946;2022-07-18T09:37:40;46.00;34.00
4615;DHT22;2320;51.362;6.946;2022-07-18T09:40:30;44.90;33.40
4615;DHT22;2320;51.362;6.946;2022-07-18T09:42:56;45.20;34.50
4615;DHT22;2320;51.362;6.946;2022-07-18T09:45:23;45.50;34.10
4615;DHT22;2320;51.362;6.946;2022-07-18T09:47:49;45.60;33.60
4615;DHT22;2320;51.362;6.946;2022-07-18T09:50:30;46.00;33.10
4615;DHT22;2320;51.362;6.946;2022-07-18T09:52:57;45.40;31.50
4615;DHT22;2320;51.362;6.946;2022-07-18T09:55:23;45.40;32.60
4615;DHT22;2320;51.362;6.946;2022-07-18T09:57:59;45.70;32.80
4615;DHT22;2320;51.362;6.946;2022-07-18T10:00:27;45.50;32.90
4615;DHT22;2320;51.362;6.946;2022-07-18T10:02:53;45.60;32.30
4615;DHT22;2320;51.362;6.946;2022-07-18T10:05:20;45.70;33.00
4615;DHT22;2320;51.362;6.946;2022-07-18T10:07:46;45.50;32.20
4615;DHT22;2320;51.362;6.946;2022-07-18T10:10:13;44.80;31.60
4615;DHT22;2320;51.362;6.946;2022-07-18T10:12:39;44.30;30.90
4615;DHT22;2320;51.362;6.946;2022-07-18T10:15:04;43.90;31.10
4615;DHT22;2320;51.362;6.946;2022-07-18T10:17:30;43.50;31.20
4615;DHT22;2320;51.362;6.946;2022-07-18T10:20:02;43.20;31.10
4615;DHT22;2320;51.362;6.946;2022-07-18T10:22:27;43.80;33.30
4615;DHT22;2320;51.362;6.946;2022-07-18T10:24:53;44.60;32.30
4615;DHT22;2320;51.362;6.946;2022-07-18T10:27:19;44.80;30.90
4615;DHT22;2320;51.362;6.946;2022-07-18T10:32:32;44.30;31.70
4615;DHT22;2320;51.362;6.946;2022-07-18T10:35:01;43.30;31.00
4615;DHT22;2320;51.362;6.946;2022-07-18T10:37:26;43.70;31.50
4615;DHT22;2320;51.362;6.946;2022-07-18T10:39:57;44.20;31.50
4615;DHT22;2320;51.362;6.946;2022-07-18T10:42:42;43.70;30.40
4615;DHT22;2320;51.362;6.946;2022-07-18T10:45:20;43.20;31.00
4615;DHT22;2320;51.362;6.946;2022-07-18T10:47:52;43.00;32.30
4615;DHT22;2320;51.362;6.946;2022-07-18T10:50:18;43.70;31.70
4615;DHT22;2320;51.362;6.946;2022-07-18T11:15:58;42.80;31.20
4615;DHT22;2320;51.362;6.946;2022-07-18T11:18:24;42.40;32.10
4615;DHT22;2320;51.362;6.946;2022-07-18T11:20:50;42.30;30.60
4615;DHT22;2320;51.362;6.946;2022-07-18T11:23:22;42.90;31.40
4615;DHT22;2320;51.362;6.946;2022-07-18T11:25:49;43.30;31.60
4615;DHT22;2320;51.362;6.946;2022-07-18T11:28:15;43.50;31.10
4615;DHT22;2320;51.362;6.946;2022-07-18T11:30:41;43.50;30.40
4615;DHT22;2320;51.362;6.946;2022-07-18T11:33:19;43.30;31.70
4615;DHT22;2320;51.362;6.946;2022-07-18T11:35:45;43.80;31.80
4615;DHT22;2320;51.362;6.946;2022-07-18T11:38:11;43.50;30.70
4615;DHT22;2320;51.362;6.946;2022-07-18T11:41:10;43.50;32.20
4615;DHT22;2320;51.362;6.946;2022-07-18T11:43:28;43.30;31.20
4615;DHT22;2320;51.362;6.946;2022-07-18T11:48:26;42.40;30.80
4615;DHT22;2320;51.362;6.946;2022-07-18T11:50:51;40.90;31.70
4615;DHT22;2320;51.362;6.946;2022-07-18T11:53:17;40.30;31.80
4615;DHT22;2320;51.362;6.946;2022-07-18T11:55:42;39.30;33.90
4615;DHT22;2320;51.362;6.946;2022-07-18T11:58:12;38.00;33.30
4615;DHT22;2320;51.362;6.946;2022-07-18T12:00:38;37.30;34.70
4615;DHT22;2320;51.362;6.946;2022-07-18T12:03:04;37.00;35.90
4615;DHT22;2320;51.362;6.946;2022-07-18T12:05:31;36.60;36.40
4615;DHT22;2320;51.362;6.946;2022-07-18T12:07:57;35.90;35.30
4615;DHT22;2320;51.362;6.946;2022-07-18T12:10:22;35.50;36.60
4615;DHT22;2320;51.362;6.946;2022-07-18T12:12:48;35.10;36.80
4615;DHT22;2320;51.362;6.946;2022-07-18T12:15:13;34.80;36.90
4615;DHT22;2320;51.362;6.946;2022-07-18T12:17:46;34.50;37.20
4615;DHT22;2320;51.362;6.946;2022-07-18T12:20:13;34.20;37.50
4615;DHT22;2320;51.362;6.946;2022-07-18T12:25:34;34.00;37.60
4615;DHT22;2320;51.362;6.946;2022-07-18T12:28:11;33.80;37.50
4615;DHT22;2320;51.362;6.946;2022-07-18T12:30:37;33.80;37.90
4615;DHT22;2320;51.362;6.946;2022-07-18T12:33:06;33.70;38.10
4615;DHT22;2320;51.362;6.946;2022-07-18T12:35:33;33.50;38.40
4615;DHT22;2320;51.362;6.946;2022-07-18T12:38:12;33.50;40.30
4615;DHT22;2320;51.362;6.946;2022-07-18T12:43:13;33.90;40.40
4615;DHT22;2320;51.362;6.946;2022-07-18T12:45:39;34.30;39.50
4615;DHT22;2320;51.362;6.946;2022-07-18T12:48:05;34.60;38.90
4615;DHT22;2320;51.362;6.946;2022-07-18T12:50:31;34.60;39.20
4615;DHT22;2320;51.362;6.946;2022-07-18T12:52:57;34.80;38.30
4615;DHT22;2320;51.362;6.946;2022-07-18T12:55:23;35.00;38.70
4615;DHT22;2320;51.362;6.946;2022-07-18T12:57:49;35.10;38.40
4615;DHT22;2320;51.362;6.946;2022-07-18T13:00:14;35.20;38.00
4615;DHT22;2320;51.362;6.946;2022-07-18T13:02:41;35.10;37.30
4615;DHT22;2320;51.362;6.946;2022-07-18T13:05:07;35.20;38.00
4615;DHT22;2320;51.362;6.946;2022-07-18T13:07:33;35.10;38.00
4615;DHT22;2320;51.362;6.946;2022-07-18T13:09:58;35.00;38.40
4615;DHT22;2320;51.362;6.946;2022-07-18T13:12:23;34.80;38.40
4615;DHT22;2320;51.362;6.946;2022-07-18T13:14:49;34.70;38.50
4615;DHT22;2320;51.362;6.946;2022-07-18T13:17:14;34.60;37.80
4615;DHT22;2320;51.362;6.946;2022-07-18T13:19:40;34.30;37.60
4615;DHT22;2320;51.362;6.946;2022-07-18T13:22:05;34.20;37.70
4615;DHT22;2320;51.362;6.946;2022-07-18T13:24:31;34.10;38.20
4615;DHT22;2320;51.362;6.946;2022-07-18T13:26:56;33.80;38.30
4615;DHT22;2320;51.362;6.946;2022-07-18T13:29:22;33.70;39.00
4615;DHT22;2320;51.362;6.946;2022-07-18T13:31:47;33.70;38.90
4615;DHT22;2320;51.362;6.946;2022-07-18T13:34:15;33.70;38.60
4615;DHT22;2320;51.362;6.946;2022-07-18T13:36:41;33.80;40.30
4615;DHT22;2320;51.362;6.946;2022-07-18T13:39:06;34.00;39.70
4615;DHT22;2320;51.362;6.946;2022-07-18T13:41:32;34.10;39.60
4615;DHT22;2320;51.362;6.946;2022-07-18T13:43:57;34.30;38.90
4615;DHT22;2320;51.362;6.946;2022-07-18T13:46:23;34.30;39.50
4615;DHT22;2320;51.362;6.946;2022-07-18T13:48:48;34.30;40.20
4615;DHT22;2320;51.362;6.946;2022-07-18T13:51:15;34.40;39.20
4615;DHT22;2320;51.362;6.946;2022-07-18T13:53:40;34.30;39.40
4615;DHT22;2320;51.362;6.946;2022-07-18T13:56:06;34.10;38.60
4615;DHT22;2320;51.362;6.946;2022-07-18T13:58:31;34.20;38.50
4615;DHT22;2320;51.362;6.946;2022-07-18T14:00:57;34.20;38.50
4615;DHT22;2320;51.362;6.946;2022-07-18T14:03:22;33.80;38.80
4615;DHT22;2320;51.362;6.946;2022-07-18T14:05:48;33.80;39.70
4615;DHT22;2320;51.362;6.946;2022-07-18T14:08:13;33.80;39.30
4615;DHT22;2320;51.362;6.946;2022-07-18T14:10:39;33.80;40.30
4615;DHT22;2320;51.362;6.946;2022-07-18T14:13:04;33.90;40.10
4615;DHT22;2320;51.362;6.946;2022-07-18T14:15:30;34.00;40.60
4615;DHT22;2320;51.362;6.946;2022-07-18T14:17:55;34.20;40.50
4615;DHT22;2320;51.362;6.946;2022-07-18T14:20:21;34.20;38.70
4615;DHT22;2320;51.362;6.946;2022-07-18T14:22:47;33.90;38.90
4615;DHT22;2320;51.362;6.946;2022-07-18T14:25:13;33.80;39.20
4615;DHT22;2320;51.362;6.946;2022-07-18T14:27:39;33.80;39.80
4615;DHT22;2320;51.362;6.946;2022-07-18T14:30:06;33.70;39.10
4615;DHT22;2320;51.362;6.946;2022-07-18T14:32:32;33.80;39.70
4615;DHT22;2320;51.362;6.946;2022-07-18T14:34:57;33.80;39.60
4615;DHT22;2320;51.362;6.946;2022-07-18T14:37:23;33.90;39.50
4615;DHT22;2320;51.362;6.946;2022-07-18T14:39:48;33.80;39.50
4615;DHT22;2320;51.362;6.946;2022-07-18T14:42:14;33.80;39.60
4615;DHT22;2320;51.362;6.946;2022-07-18T14:44:39;33.90;40.20
4615;DHT22;2320;51.362;6.946;2022-07-18T14:47:05;34.00;39.50
4615;DHT22;2320;51.362;6.946;2022-07-18T14:49:30;34.00;39.10
4615;DHT22;2320;51.362;6.946;2022-07-18T14:51:56;34.00;39.20
4615;DHT22;2320;51.362;6.946;2022-07-18T14:54:22;34.00;39.80
4615;DHT22;2320;51.362;6.946;2022-07-18T14:56:47;34.00;41.40
4615;DHT22;2320;51.362;6.946;2022-07-18T14:59:13;34.10;40.60
4615;DHT22;2320;51.362;6.946;2022-07-18T15:01:38;34.20;39.60
4615;DHT22;2320;51.362;6.946;2022-07-18T15:04:04;34.10;39.30
4615;DHT22;2320;51.362;6.946;2022-07-18T15:06:29;33.90;39.60
4615;DHT22;2320;51.362;6.946;2022-07-18T15:08:55;34.00;40.20
4615;DHT22;2320;51.362;6.946;2022-07-18T15:11:20;33.90;39.50
4615;DHT22;2320;51.362;6.946;2022-07-18T15:13:49;33.90;39.60
4615;DHT22;2320;51.362;6.946;2022-07-18T15:16:15;33.90;39.80
4615;DHT22;2320;51.362;6.946;2022-07-18T15:18:41;33.90;39.50
4615;DHT22;2320;51.362;6.946;2022-07-18T15:21:06;34.00;39.80
4615;DHT22;2320;51.362;6.946;2022-07-18T15:23:31;33.80;39.90
4615;DHT22;2320;51.362;6.946;2022-07-18T15:25:57;33.80;40.50
4615;DHT22;2320;51.362;6.946;2022-07-18T15:28:22;33.80;40.00
4615;DHT22;2320;51.362;6.946;2022-07-18T15:30:48;33.90;40.20
4615;DHT22;2320;51.362;6.946;2022-07-18T15:33:14;34.00;40.30
4615;DHT22;2320;51.362;6.946;2022-07-18T15:35:40;33.90;40.00
4615;DHT22;2320;51.362;6.946;2022-07-18T15:38:05;34.00;39.90
4615;DHT22;2320;51.362;6.946;2022-07-18T15:40:31;34.00;40.00
4615;DHT22;2320;51.362;6.946;2022-07-18T15:42:56;34.00;40.00
4615;DHT22;2320;51.362;6.946;2022-07-18T15:45:22;34.00;39.90
4615;DHT22;2320;51.362;6.946;2022-07-18T15:47:47;33.90;40.00
4615;DHT22;2320;51.362;6.946;2022-07-18T15:50:13;34.00;40.00
4615;DHT22;2320;51.362;6.946;2022-07-18T15:52:40;34.00;40.10
4615;DHT22;2320;51.362;6.946;2022-07-18T15:55:05;33.90;40.20
4615;DHT22;2320;51.362;6.946;2022-07-18T15:57:31;33.80;40.10
4615;DHT22;2320;51.362;6.946;2022-07-18T15:59:56;33.80;40.20
4615;DHT22;2320;51.362;6.946;2022-07-18T16:02:22;33.80;40.40
4615;DHT22;2320;51.362;6.946;2022-07-18T16:04:47;33.80;40.60
4615;DHT22;2320;51.362;6.946;2022-07-18T16:07:13;33.80;40.10
4615;DHT22;2320;51.362;6.946;2022-07-18T16:09:39;33.80;40.20
4615;DHT22;2320;51.362;6.946;2022-07-18T16:12:05;33.90;40.60
4615;DHT22;2320;51.362;6.946;2022-07-18T16:14:32;34.00;40.40
4615;DHT22;2320;51.362;6.946;2022-07-18T16:16:58;34.10;41.00
4615;DHT22;2320;51.362;6.946;2022-07-18T16:19:23;34.00;40.20
4615;DHT22;2320;51.362;6.946;2022-07-18T16:21:49;34.00;40.70
4615;DHT22;2320;51.362;6.946;2022-07-18T16:24:14;34.00;40.30
4615;DHT22;2320;51.362;6.946;2022-07-18T16:26:39;33.90;41.00
4615;DHT22;2320;51.362;6.946;2022-07-18T16:29:05;33.80;40.30